sensor_id;sensor_type;location;lat;lon;timestamp;pressure;altitude;pressure_sealevel;temperature;humidity
63088;BME280;49173;43.164;27.786;2023-07-20T00:01:14;99865.97;;;26.68;58.59
63088;BME280;49173;43.164;27.786;2023-07-20T00:03:41;99862.13;;;26.63;59.02
63088;BME280;49173;43.164;27.786;2023-07-20T00:06:07;99856.38;;;26.58;59.05
63088;BME280;49173;43.164;27.786;2023-07-20T00:08:36;99849.56;;;26.53;58.80
63088;BME280;49173;43.164;27.786;2023-07-20T00:11:01;99857.19;;;26.51;59.03
63088;BME280;49173;43.164;27.786;2023-07-20T00:13:27;99853.38;;;26.52;59.01
63088;BME280;49173;43.164;27.786;2023-07-20T00:15:53;99857.19;;;26.51;59.10
63088;BME280;49173;43.164;27.786;2023-07-20T00:18:19;99855.91;;;26.54;58.95
63088;BME280;49173;43.164;27.786;2023-07-20T00:20:47;99865.03;;;26.54;58.27
63088;BME280;49173;43.164;27.786;2023-07-20T00:23:13;99867.13;;;26.52;58.09
63088;BME280;49173;43.164;27.786;2023-07-20T00:25:39;99862.41;;;26.46;57.84
63088;BME280;49173;43.164;27.786;2023-07-20T00:28:05;99861.09;;;26.42;57.94
63088;BME280;49173;43.164;27.786;2023-07-20T00:30:31;99852.75;;;26.36;58.05
63088;BME280;49173;43.164;27.786;2023-07-20T00:32:56;99859.09;;;26.29;58.49
63088;BME280;49173;43.164;27.786;2023-07-20T00:35:22;99857.97;;;26.24;58.46
63088;BME280;49173;43.164;27.786;2023-07-20T00:37:48;99855.16;;;26.17;58.61
63088;BME280;49173;43.164;27.786;2023-07-20T00:40:14;99848.53;;;26.12;59.63
63088;BME280;49173;43.164;27.786;2023-07-20T00:42:39;99836.69;;;26.11;59.73
63088;BME280;49173;43.164;27.786;2023-07-20T00:45:06;99851.69;;;26.09;59.69
63088;BME280;49173;43.164;27.786;2023-07-20T00:47:32;99858.25;;;26.08;59.95
63088;BME280;49173;43.164;27.786;2023-07-20T00:49:58;99865.81;;;26.06;59.90
63088;BME280;49173;43.164;27.786;2023-07-20T00:52:25;99866.88;;;26.05;60.92
63088;BME280;49173;43.164;27.786;2023-07-20T00:54:52;99869.63;;;26.05;60.08
63088;BME280;49173;43.164;27.786;2023-07-20T00:57:22;99866.25;;;26.02;59.30
63088;BME280;49173;43.164;27.786;2023-07-20T00:59:49;99867.94;;;26.04;59.03
63088;BME280;49173;43.164;27.786;2023-07-20T01:02:15;99862.63;;;26.02;59.60
63088;BME280;49173;43.164;27.786;2023-07-20T01:04:41;99864.91;;;25.98;60.22
63088;BME280;49173;43.164;27.786;2023-07-20T01:09:49;99852.22;;;25.97;61.04
63088;BME280;49173;43.164;27.786;2023-07-20T01:12:29;99845.22;;;25.95;60.90
63088;BME280;49173;43.164;27.786;2023-07-20T01:14:57;99850.50;;;25.96;59.88
63088;BME280;49173;43.164;27.786;2023-07-20T01:17:23;99839.31;;;25.98;59.34
63088;BME280;49173;43.164;27.786;2023-07-20T01:19:49;99836.34;;;25.99;58.84
63088;BME280;49173;43.164;27.786;2023-07-20T01:22:36;99843.97;;;25.97;58.63
63088;BME280;49173;43.164;27.786;2023-07-20T01:32:58;99892.13;;;25.93;56.75
63088;BME280;49173;43.164;27.786;2023-07-20T01:35:30;99887.69;;;25.92;57.04
63088;BME280;49173;43.164;27.786;2023-07-20T01:37:56;99918.78;;;25.93;56.67
63088;BME280;49173;43.164;27.786;2023-07-20T01:40:24;99945.63;;;25.91;57.29
63088;BME280;49173;43.164;27.786;2023-07-20T01:42:51;99975.59;;;25.86;57.72
63088;BME280;49173;43.164;27.786;2023-07-20T01:45:17;99978.09;;;25.81;57.43
63088;BME280;49173;43.164;27.786;2023-07-20T01:47:43;99980.97;;;25.72;58.11
63088;BME280;49173;43.164;27.786;2023-07-20T01:50:09;99977.34;;;25.72;58.89
63088;BME280;49173;43.164;27.786;2023-07-20T01:52:35;99980.06;;;25.72;58.88
63088;BME280;49173;43.164;27.786;2023-07-20T01:55:01;99984.91;;;25.70;58.41
63088;BME280;49173;43.164;27.786;2023-07-20T01:57:27;99963.22;;;25.75;58.04
63088;BME280;49173;43.164;27.786;2023-07-20T01:59:52;99971.75;;;25.80;57.63
63088;BME280;49173;43.164;27.786;2023-07-20T02:02:18;99972.19;;;25.84;57.01
63088;BME280;49173;43.164;27.786;2023-07-20T02:04:46;99962.53;;;25.88;56.71
63088;BME280;49173;43.164;27.786;2023-07-20T02:07:12;99954.16;;;25.96;56.72
63088;BME280;49173;43.164;27.786;2023-07-20T02:09:37;99941.13;;;26.05;56.49
63088;BME280;49173;43.164;27.786;2023-07-20T02:12:03;99924.72;;;26.11;56.14
63088;BME280;49173;43.164;27.786;2023-07-20T02:14:29;99935.78;;;26.18;55.68
63088;BME280;49173;43.164;27.786;2023-07-20T02:16:55;99924.19;;;26.22;55.58
63088;BME280;49173;43.164;27.786;2023-07-20T02:22:41;99918.44;;;26.17;55.51
63088;BME280;49173;43.164;27.786;2023-07-20T02:25:07;99910.75;;;26.13;55.51
63088;BME280;49173;43.164;27.786;2023-07-20T02:27:34;99919.41;;;26.10;55.47
63088;BME280;49173;43.164;27.786;2023-07-20T02:30:00;99912.00;;;26.10;55.14
63088;BME280;49173;43.164;27.786;2023-07-20T02:32:27;99914.56;;;26.12;55.02
63088;BME280;49173;43.164;27.786;2023-07-20T02:34:55;99916.47;;;26.11;55.16
63088;BME280;49173;43.164;27.786;2023-07-20T02:37:20;99906.50;;;26.10;55.57
63088;BME280;49173;43.164;27.786;2023-07-20T02:39:46;99900.16;;;26.10;55.13
63088;BME280;49173;43.164;27.786;2023-07-20T02:42:12;99886.78;;;26.07;55.23
63088;BME280;49173;43.164;27.786;2023-07-20T02:44:38;99880.44;;;26.06;55.36
63088;BME280;49173;43.164;27.786;2023-07-20T02:47:04;99879.59;;;26.06;55.54
63088;BME280;49173;43.164;27.786;2023-07-20T02:49:30;99860.75;;;26.02;55.19
63088;BME280;49173;43.164;27.786;2023-07-20T02:51:56;99870.03;;;26.01;55.28
63088;BME280;49173;43.164;27.786;2023-07-20T02:54:21;99869.78;;;25.96;55.94
63088;BME280;49173;43.164;27.786;2023-07-20T02:56:48;99882.88;;;25.94;55.81
63088;BME280;49173;43.164;27.786;2023-07-20T02:59:14;99872.88;;;25.93;55.62
63088;BME280;49173;43.164;27.786;2023-07-20T03:01:40;99863.16;;;25.91;55.95
63088;BME280;49173;43.164;27.786;2023-07-20T03:04:08;99854.44;;;25.87;55.80
63088;BME280;49173;43.164;27.786;2023-07-20T03:06:36;99848.28;;;25.85;56.13
63088;BME280;49173;43.164;27.786;2023-07-20T03:09:02;99844.31;;;25.88;56.01
63088;BME280;49173;43.164;27.786;2023-07-20T03:11:32;99827.34;;;25.84;56.28
63088;BME280;49173;43.164;27.786;2023-07-20T03:13:59;99820.78;;;25.85;56.36
63088;BME280;49173;43.164;27.786;2023-07-20T03:16:25;99803.72;;;25.90;56.37
63088;BME280;49173;43.164;27.786;2023-07-20T03:18:52;99799.69;;;25.92;56.33
63088;BME280;49173;43.164;27.786;2023-07-20T03:21:18;99803.75;;;25.96;56.41
63088;BME280;49173;43.164;27.786;2023-07-20T03:23:43;99797.69;;;26.01;56.29
63088;BME280;49173;43.164;27.786;2023-07-20T03:26:09;99786.91;;;26.06;56.11
63088;BME280;49173;43.164;27.786;2023-07-20T03:28:36;99781.69;;;26.11;56.34
63088;BME280;49173;43.164;27.786;2023-07-20T03:31:02;99757.19;;;26.16;56.44
63088;BME280;49173;43.164;27.786;2023-07-20T03:33:28;99745.75;;;26.19;56.23
63088;BME280;49173;43.164;27.786;2023-07-20T03:35:55;99740.31;;;26.26;56.58
63088;BME280;49173;43.164;27.786;2023-07-20T03:38:22;99737.19;;;26.29;57.24
63088;BME280;49173;43.164;27.786;2023-07-20T03:41:06;99716.06;;;26.36;57.45
63088;BME280;49173;43.164;27.786;2023-07-20T03:43:32;99694.75;;;26.45;57.30
63088;BME280;49173;43.164;27.786;2023-07-20T03:45:58;99682.09;;;26.50;56.49
63088;BME280;49173;43.164;27.786;2023-07-20T03:48:24;99675.34;;;26.60;56.60
63088;BME280;49173;43.164;27.786;2023-07-20T03:50:52;99671.34;;;26.69;56.88
63088;BME280;49173;43.164;27.786;2023-07-20T03:53:18;99662.72;;;26.78;55.87
63088;BME280;49173;43.164;27.786;2023-07-20T03:55:48;99669.28;;;26.84;55.31
63088;BME280;49173;43.164;27.786;2023-07-20T03:58:14;99678.00;;;26.88;56.42
63088;BME280;49173;43.164;27.786;2023-07-20T04:00:44;99686.06;;;26.96;56.77
63088;BME280;49173;43.164;27.786;2023-07-20T04:03:10;99712.56;;;27.03;56.44
63088;BME280;49173;43.164;27.786;2023-07-20T04:05:36;99727.88;;;27.13;56.08
63088;BME280;49173;43.164;27.786;2023-07-20T04:08:01;99734.94;;;27.22;55.59
63088;BME280;49173;43.164;27.786;2023-07-20T04:10:27;99718.81;;;27.25;55.51
63088;BME280;49173;43.164;27.786;2023-07-20T04:12:53;99726.22;;;27.25;55.26
63088;BME280;49173;43.164;27.786;2023-07-20T04:15:19;99716.69;;;27.21;55.92
63088;BME280;49173;43.164;27.786;2023-07-20T04:17:45;99720.91;;;27.17;55.71
63088;BME280;49173;43.164;27.786;2023-07-20T04:20:11;99712.63;;;27.10;55.89
63088;BME280;49173;43.164;27.786;2023-07-20T04:22:36;99716.00;;;27.05;56.24
63088;BME280;49173;43.164;27.786;2023-07-20T04:25:03;99721.25;;;27.00;56.98
63088;BME280;49173;43.164;27.786;2023-07-20T04:27:29;99716.38;;;26.96;57.32
63088;BME280;49173;43.164;27.786;2023-07-20T04:29:56;99722.47;;;26.91;57.79
63088;BME280;49173;43.164;27.786;2023-07-20T04:32:21;99737.06;;;26.85;57.11
63088;BME280;49173;43.164;27.786;2023-07-20T04:34:47;99752.09;;;26.82;57.33
63088;BME280;49173;43.164;27.786;2023-07-20T04:37:13;99763.97;;;26.83;57.42
63088;BME280;49173;43.164;27.786;2023-07-20T04:39:38;99766.28;;;26.79;57.97
63088;BME280;49173;43.164;27.786;2023-07-20T04:42:04;99766.13;;;26.88;58.79
63088;BME280;49173;43.164;27.786;2023-07-20T04:44:30;99767.88;;;27.02;58.65
63088;BME280;49173;43.164;27.786;2023-07-20T04:46:56;99768.16;;;27.20;58.47
63088;BME280;49173;43.164;27.786;2023-07-20T04:49:24;99782.03;;;27.40;58.25
63088;BME280;49173;43.164;27.786;2023-07-20T04:51:51;99785.25;;;27.57;57.76
63088;BME280;49173;43.164;27.786;2023-07-20T04:54:17;99770.03;;;27.68;57.08
63088;BME280;49173;43.164;27.786;2023-07-20T04:56:44;99778.31;;;27.81;56.61
63088;BME280;49173;43.164;27.786;2023-07-20T04:59:10;99788.31;;;27.95;55.86
63088;BME280;49173;43.164;27.786;2023-07-20T05:01:36;99790.63;;;28.11;55.86
63088;BME280;49173;43.164;27.786;2023-07-20T05:04:02;99784.72;;;28.28;55.24
63088;BME280;49173;43.164;27.786;2023-07-20T05:06:27;99804.69;;;28.43;54.47
63088;BME280;49173;43.164;27.786;2023-07-20T05:08:53;99816.97;;;28.54;53.84
63088;BME280;49173;43.164;27.786;2023-07-20T05:11:19;99839.50;;;28.64;53.20
63088;BME280;49173;43.164;27.786;2023-07-20T05:13:45;99851.78;;;28.68;53.07
63088;BME280;49173;43.164;27.786;2023-07-20T05:16:11;99859.44;;;28.72;53.21
63088;BME280;49173;43.164;27.786;2023-07-20T05:18:37;99856.88;;;28.78;53.42
63088;BME280;49173;43.164;27.786;2023-07-20T05:21:02;99859.00;;;28.82;53.00
63088;BME280;49173;43.164;27.786;2023-07-20T05:23:28;99857.50;;;28.86;52.83
63088;BME280;49173;43.164;27.786;2023-07-20T05:25:58;99861.97;;;28.94;53.20
63088;BME280;49173;43.164;27.786;2023-07-20T05:28:27;99852.81;;;29.07;52.49
63088;BME280;49173;43.164;27.786;2023-07-20T05:30:53;99848.97;;;29.14;51.86
63088;BME280;49173;43.164;27.786;2023-07-20T05:33:20;99844.47;;;29.26;51.58
63088;BME280;49173;43.164;27.786;2023-07-20T05:35:46;99853.13;;;29.37;50.74
63088;BME280;49173;43.164;27.786;2023-07-20T05:38:12;99852.44;;;29.48;50.63
63088;BME280;49173;43.164;27.786;2023-07-20T05:40:40;99849.00;;;29.59;50.05
63088;BME280;49173;43.164;27.786;2023-07-20T05:43:06;99850.25;;;29.70;49.28
63088;BME280;49173;43.164;27.786;2023-07-20T05:45:32;99854.44;;;29.79;48.91
63088;BME280;49173;43.164;27.786;2023-07-20T05:47:58;99844.78;;;29.88;48.76
63088;BME280;49173;43.164;27.786;2023-07-20T05:50:23;99852.38;;;29.99;47.96
63088;BME280;49173;43.164;27.786;2023-07-20T05:52:52;99859.56;;;30.07;47.21
63088;BME280;49173;43.164;27.786;2023-07-20T05:55:18;99856.56;;;30.15;46.43
63088;BME280;49173;43.164;27.786;2023-07-20T05:57:44;99853.50;;;30.23;45.95
63088;BME280;49173;43.164;27.786;2023-07-20T06:00:11;99854.50;;;30.35;45.73
63088;BME280;49173;43.164;27.786;2023-07-20T06:02:38;99856.34;;;30.42;45.95
63088;BME280;49173;43.164;27.786;2023-07-20T06:05:08;99860.75;;;30.49;45.47
63088;BME280;49173;43.164;27.786;2023-07-20T06:07:38;99861.31;;;30.58;45.48
63088;BME280;49173;43.164;27.786;2023-07-20T06:10:06;99872.13;;;30.66;45.11
63088;BME280;49173;43.164;27.786;2023-07-20T06:12:34;99876.94;;;30.77;44.66
63088;BME280;49173;43.164;27.786;2023-07-20T06:15:02;99879.81;;;30.89;45.30
63088;BME280;49173;43.164;27.786;2023-07-20T06:17:29;99890.00;;;30.95;45.01
63088;BME280;49173;43.164;27.786;2023-07-20T06:19:55;99888.06;;;30.96;42.75
63088;BME280;49173;43.164;27.786;2023-07-20T06:22:20;99888.03;;;30.77;43.53
63088;BME280;49173;43.164;27.786;2023-07-20T06:24:49;99888.13;;;30.64;43.14
63088;BME280;49173;43.164;27.786;2023-07-20T06:27:15;99899.09;;;30.52;43.51
63088;BME280;49173;43.164;27.786;2023-07-20T06:29:44;99909.44;;;30.39;43.97
63088;BME280;49173;43.164;27.786;2023-07-20T06:32:17;99908.88;;;30.23;43.94
63088;BME280;49173;43.164;27.786;2023-07-20T06:34:48;99920.47;;;30.14;44.21
63088;BME280;49173;43.164;27.786;2023-07-20T06:37:20;99922.00;;;30.03;44.08
63088;BME280;49173;43.164;27.786;2023-07-20T06:39:51;99919.06;;;29.91;44.19
63088;BME280;49173;43.164;27.786;2023-07-20T06:42:20;99917.19;;;29.85;43.45
63088;BME280;49173;43.164;27.786;2023-07-20T06:44:47;99925.13;;;29.75;43.50
63088;BME280;49173;43.164;27.786;2023-07-20T06:47:17;99926.41;;;29.66;43.86
63088;BME280;49173;43.164;27.786;2023-07-20T06:49:46;99907.53;;;29.56;44.20
63088;BME280;49173;43.164;27.786;2023-07-20T06:52:17;99896.47;;;29.49;43.92
63088;BME280;49173;43.164;27.786;2023-07-20T06:54:46;99875.44;;;29.42;44.10
63088;BME280;49173;43.164;27.786;2023-07-20T06:57:13;99865.03;;;29.37;44.50
63088;BME280;49173;43.164;27.786;2023-07-20T06:59:42;99859.75;;;29.29;45.07
63088;BME280;49173;43.164;27.786;2023-07-20T07:02:08;99862.13;;;29.25;47.28
63088;BME280;49173;43.164;27.786;2023-07-20T07:04:38;99837.03;;;29.20;51.15
63088;BME280;49173;43.164;27.786;2023-07-20T07:07:07;99840.25;;;29.11;52.71
63088;BME280;49173;43.164;27.786;2023-07-20T07:09:38;99810.94;;;29.03;53.12
63088;BME280;49173;43.164;27.786;2023-07-20T07:12:07;99801.19;;;28.94;53.21
63088;BME280;49173;43.164;27.786;2023-07-20T07:14:37;99810.53;;;28.86;52.04
63088;BME280;49173;43.164;27.786;2023-07-20T07:17:06;99825.66;;;28.84;55.09
63088;BME280;49173;43.164;27.786;2023-07-20T07:19:35;99847.53;;;28.85;55.94
63088;BME280;49173;43.164;27.786;2023-07-20T07:22:03;99842.41;;;28.89;55.98
63088;BME280;49173;43.164;27.786;2023-07-20T07:24:33;99859.44;;;28.92;55.84
63088;BME280;49173;43.164;27.786;2023-07-20T07:27:03;99868.34;;;29.01;55.88
63088;BME280;49173;43.164;27.786;2023-07-20T07:29:32;99885.75;;;29.15;53.54
63088;BME280;49173;43.164;27.786;2023-07-20T07:31:59;99888.88;;;29.32;52.59
63088;BME280;49173;43.164;27.786;2023-07-20T07:34:31;99879.88;;;29.49;50.45
63088;BME280;49173;43.164;27.786;2023-07-20T07:37:12;99854.97;;;29.63;50.11
63088;BME280;49173;43.164;27.786;2023-07-20T07:42:47;99870.31;;;29.97;46.84
63088;BME280;49173;43.164;27.786;2023-07-20T07:45:17;99872.19;;;30.03;45.16
63088;BME280;49173;43.164;27.786;2023-07-20T07:47:46;99864.25;;;30.06;45.20
63088;BME280;49173;43.164;27.786;2023-07-20T07:50:17;99864.03;;;30.15;46.05
63088;BME280;49173;43.164;27.786;2023-07-20T07:52:49;99871.44;;;30.21;45.75
63088;BME280;49173;43.164;27.786;2023-07-20T07:55:15;99854.53;;;30.29;44.95
63088;BME280;49173;43.164;27.786;2023-07-20T07:57:49;99862.00;;;30.28;45.11
63088;BME280;49173;43.164;27.786;2023-07-20T08:00:17;99853.94;;;30.27;44.15
63088;BME280;49173;43.164;27.786;2023-07-20T08:02:49;99857.34;;;30.22;43.65
63088;BME280;49173;43.164;27.786;2023-07-20T08:05:18;99844.59;;;30.21;44.07
63088;BME280;49173;43.164;27.786;2023-07-20T08:07:47;99849.06;;;30.22;43.26
63088;BME280;49173;43.164;27.786;2023-07-20T08:10:18;99843.94;;;30.26;43.30
63088;BME280;49173;43.164;27.786;2023-07-20T08:12:49;99833.47;;;30.28;42.91
63088;BME280;49173;43.164;27.786;2023-07-20T08:15:20;99844.72;;;30.33;43.13
63088;BME280;49173;43.164;27.786;2023-07-20T08:17:50;99838.34;;;30.32;42.46
63088;BME280;49173;43.164;27.786;2023-07-20T08:20:18;99832.16;;;30.30;43.02
63088;BME280;49173;43.164;27.786;2023-07-20T08:22:47;99842.19;;;30.31;42.75
63088;BME280;49173;43.164;27.786;2023-07-20T08:25:17;99848.34;;;30.33;42.51
63088;BME280;49173;43.164;27.786;2023-07-20T08:27:43;99844.91;;;30.38;42.63
63088;BME280;49173;43.164;27.786;2023-07-20T08:30:24;99847.63;;;30.45;42.99
63088;BME280;49173;43.164;27.786;2023-07-20T08:32:56;99841.13;;;30.51;43.23
63088;BME280;49173;43.164;27.786;2023-07-20T08:35:27;99839.81;;;30.60;43.26
63088;BME280;49173;43.164;27.786;2023-07-20T08:37:56;99840.31;;;30.75;42.94
63088;BME280;49173;43.164;27.786;2023-07-20T08:40:25;99839.34;;;30.88;42.63
63088;BME280;49173;43.164;27.786;2023-07-20T08:42:59;99830.88;;;31.01;41.35
63088;BME280;49173;43.164;27.786;2023-07-20T08:45:27;99832.50;;;31.09;41.58
63088;BME280;49173;43.164;27.786;2023-07-20T08:48:04;99839.25;;;31.13;40.82
63088;BME280;49173;43.164;27.786;2023-07-20T08:50:38;99828.56;;;31.16;41.28
63088;BME280;49173;43.164;27.786;2023-07-20T08:53:10;99832.78;;;31.19;41.00
63088;BME280;49173;43.164;27.786;2023-07-20T08:55:46;99819.72;;;31.26;40.47
63088;BME280;49173;43.164;27.786;2023-07-20T08:58:18;99821.16;;;31.29;40.64
63088;BME280;49173;43.164;27.786;2023-07-20T09:00:56;99822.56;;;31.38;41.26
63088;BME280;49173;43.164;27.786;2023-07-20T09:03:32;99828.78;;;31.52;41.15
63088;BME280;49173;43.164;27.786;2023-07-20T09:05:58;99820.50;;;31.63;40.95
63088;BME280;49173;43.164;27.786;2023-07-20T09:08:25;99811.97;;;31.77;40.41
63088;BME280;49173;43.164;27.786;2023-07-20T09:10:51;99817.84;;;31.87;40.08
63088;BME280;49173;43.164;27.786;2023-07-20T09:13:22;99812.69;;;32.02;39.57
63088;BME280;49173;43.164;27.786;2023-07-20T09:15:57;99811.63;;;32.15;39.04
63088;BME280;49173;43.164;27.786;2023-07-20T09:18:28;99809.50;;;32.29;38.11
63088;BME280;49173;43.164;27.786;2023-07-20T09:21:02;99807.13;;;32.44;38.08
63088;BME280;49173;43.164;27.786;2023-07-20T09:26:10;99806.75;;;32.64;37.65
63088;BME280;49173;43.164;27.786;2023-07-20T09:28:56;99808.66;;;32.75;37.63
63088;BME280;49173;43.164;27.786;2023-07-20T09:31:26;99801.19;;;32.87;37.64
63088;BME280;49173;43.164;27.786;2023-07-20T09:34:01;99806.88;;;32.92;37.35
63088;BME280;49173;43.164;27.786;2023-07-20T09:36:38;99802.63;;;33.01;37.29
63088;BME280;49173;43.164;27.786;2023-07-20T09:39:07;99799.97;;;33.06;36.59
63088;BME280;49173;43.164;27.786;2023-07-20T09:41:43;99795.13;;;33.14;36.29
63088;BME280;49173;43.164;27.786;2023-07-20T09:44:14;99790.47;;;33.19;36.48
63088;BME280;49173;43.164;27.786;2023-07-20T09:46:51;99794.84;;;33.27;36.29
63088;BME280;49173;43.164;27.786;2023-07-20T09:49:23;99789.47;;;33.37;36.13
63088;BME280;49173;43.164;27.786;2023-07-20T09:51:57;99776.03;;;33.46;35.73
63088;BME280;49173;43.164;27.786;2023-07-20T09:54:27;99782.28;;;33.53;35.88
63088;BME280;49173;43.164;27.786;2023-07-20T09:56:58;99777.25;;;33.67;34.96
63088;BME280;49173;43.164;27.786;2023-07-20T09:59:27;99774.00;;;33.70;35.35
63088;BME280;49173;43.164;27.786;2023-07-20T10:01:58;99769.53;;;33.85;35.08
63088;BME280;49173;43.164;27.786;2023-07-20T10:04:28;99771.63;;;33.90;34.95
63088;BME280;49173;43.164;27.786;2023-07-20T10:07:02;99754.72;;;33.97;35.88
63088;BME280;49173;43.164;27.786;2023-07-20T10:09:31;99771.34;;;34.08;35.52
63088;BME280;49173;43.164;27.786;2023-07-20T10:11:59;99767.56;;;34.14;35.49
63088;BME280;49173;43.164;27.786;2023-07-20T10:14:35;99754.41;;;34.27;34.72
63088;BME280;49173;43.164;27.786;2023-07-20T10:17:11;99751.75;;;34.37;35.13
63088;BME280;49173;43.164;27.786;2023-07-20T10:19:53;99759.22;;;34.48;34.72
63088;BME280;49173;43.164;27.786;2023-07-20T10:22:29;99745.94;;;34.55;34.68
63088;BME280;49173;43.164;27.786;2023-07-20T10:25:04;99742.13;;;34.61;34.11
63088;BME280;49173;43.164;27.786;2023-07-20T10:27:34;99740.00;;;34.68;35.04
63088;BME280;49173;43.164;27.786;2023-07-20T10:30:07;99746.22;;;34.76;34.84
63088;BME280;49173;43.164;27.786;2023-07-20T10:32:39;99739.09;;;34.85;35.04
63088;BME280;49173;43.164;27.786;2023-07-20T10:35:18;99732.31;;;34.98;34.30
63088;BME280;49173;43.164;27.786;2023-07-20T10:37:51;99720.44;;;35.07;34.57
63088;BME280;49173;43.164;27.786;2023-07-20T10:40:40;99718.56;;;35.13;33.98
63088;BME280;49173;43.164;27.786;2023-07-20T10:43:09;99722.09;;;35.30;34.21
63088;BME280;49173;43.164;27.786;2023-07-20T10:48:06;99703.06;;;35.49;33.09
63088;BME280;49173;43.164;27.786;2023-07-20T10:50:40;99716.59;;;35.62;33.69
63088;BME280;49173;43.164;27.786;2023-07-20T10:53:17;99705.00;;;35.75;33.34
63088;BME280;49173;43.164;27.786;2023-07-20T10:55:47;99697.81;;;35.85;32.12
63088;BME280;49173;43.164;27.786;2023-07-20T10:58:22;99705.72;;;35.93;32.74
63088;BME280;49173;43.164;27.786;2023-07-20T11:01:00;99697.94;;;36.00;31.97
63088;BME280;49173;43.164;27.786;2023-07-20T11:03:32;99698.28;;;36.03;32.01
63088;BME280;49173;43.164;27.786;2023-07-20T11:06:29;99702.56;;;36.21;31.91
63088;BME280;49173;43.164;27.786;2023-07-20T11:08:55;99694.25;;;36.26;31.83
63088;BME280;49173;43.164;27.786;2023-07-20T11:11:30;99692.38;;;36.37;32.50
63088;BME280;49173;43.164;27.786;2023-07-20T11:14:01;99673.72;;;36.48;32.14
63088;BME280;49173;43.164;27.786;2023-07-20T11:16:41;99667.88;;;36.54;31.54
63088;BME280;49173;43.164;27.786;2023-07-20T11:19:21;99671.53;;;36.60;31.28
63088;BME280;49173;43.164;27.786;2023-07-20T11:21:54;99664.88;;;36.76;31.33
63088;BME280;49173;43.164;27.786;2023-07-20T11:24:24;99658.22;;;36.82;31.13
63088;BME280;49173;43.164;27.786;2023-07-20T11:26:54;99660.22;;;36.92;30.93
63088;BME280;49173;43.164;27.786;2023-07-20T11:29:25;99634.81;;;37.04;30.89
63088;BME280;49173;43.164;27.786;2023-07-20T11:31:55;99640.41;;;37.14;30.77
63088;BME280;49173;43.164;27.786;2023-07-20T11:34:26;99632.34;;;37.23;30.32
63088;BME280;49173;43.164;27.786;2023-07-20T11:36:56;99635.16;;;37.33;30.48
63088;BME280;49173;43.164;27.786;2023-07-20T11:39:25;99628.44;;;37.39;29.96
63088;BME280;49173;43.164;27.786;2023-07-20T11:41:56;99628.75;;;37.43;29.70
63088;BME280;49173;43.164;27.786;2023-07-20T11:44:26;99622.03;;;37.44;29.06
63088;BME280;49173;43.164;27.786;2023-07-20T11:47:04;99619.50;;;37.47;28.48
63088;BME280;49173;43.164;27.786;2023-07-20T11:49:37;99609.16;;;37.58;29.49
63088;BME280;49173;43.164;27.786;2023-07-20T11:52:14;99607.44;;;37.67;28.81
63088;BME280;49173;43.164;27.786;2023-07-20T11:54:47;99607.47;;;37.72;29.04
63088;BME280;49173;43.164;27.786;2023-07-20T11:57:20;99608.28;;;37.78;28.82
63088;BME280;49173;43.164;27.786;2023-07-20T12:00:03;99611.94;;;37.83;28.38
63088;BME280;49173;43.164;27.786;2023-07-20T12:02:41;99603.53;;;37.88;28.80
63088;BME280;49173;43.164;27.786;2023-07-20T12:05:08;99607.19;;;37.94;28.51
63088;BME280;49173;43.164;27.786;2023-07-20T12:07:38;99605.75;;;38.02;28.65
63088;BME280;49173;43.164;27.786;2023-07-20T12:10:10;99605.75;;;38.07;28.15
63088;BME280;49173;43.164;27.786;2023-07-20T12:12:43;99603.78;;;38.07;27.97
63088;BME280;49173;43.164;27.786;2023-07-20T12:17:46;99611.91;;;38.14;28.48
63088;BME280;49173;43.164;27.786;2023-07-20T12:20:31;99601.78;;;38.18;27.89
63088;BME280;49173;43.164;27.786;2023-07-20T12:23:10;99618.63;;;38.08;27.67
63088;BME280;49173;43.164;27.786;2023-07-20T12:28:13;99606.03;;;37.75;30.06
63088;BME280;49173;43.164;27.786;2023-07-20T12:30:44;99604.66;;;37.62;30.26
63088;BME280;49173;43.164;27.786;2023-07-20T12:33:10;99602.41;;;37.54;30.51
63088;BME280;49173;43.164;27.786;2023-07-20T12:35:37;99594.59;;;37.46;31.33
63088;BME280;49173;43.164;27.786;2023-07-20T12:38:03;99582.53;;;37.45;31.49
63088;BME280;49173;43.164;27.786;2023-07-20T12:40:29;99590.38;;;37.53;31.31
63088;BME280;49173;43.164;27.786;2023-07-20T12:42:57;99589.81;;;37.46;31.06
63088;BME280;49173;43.164;27.786;2023-07-20T12:45:24;99594.00;;;37.54;31.59
63088;BME280;49173;43.164;27.786;2023-07-20T12:47:49;99589.25;;;37.59;31.35
63088;BME280;49173;43.164;27.786;2023-07-20T12:50:15;99582.25;;;37.67;31.66
63088;BME280;49173;43.164;27.786;2023-07-20T12:52:41;99583.06;;;37.78;31.72
63088;BME280;49173;43.164;27.786;2023-07-20T12:55:08;99583.94;;;37.88;31.00
63088;BME280;49173;43.164;27.786;2023-07-20T12:57:38;99590.91;;;38.01;31.18
63088;BME280;49173;43.164;27.786;2023-07-20T13:00:17;99592.59;;;38.02;30.21
63088;BME280;49173;43.164;27.786;2023-07-20T13:02:58;99593.97;;;38.05;30.02
63088;BME280;49173;43.164;27.786;2023-07-20T13:05:35;99592.28;;;37.99;30.17
63088;BME280;49173;43.164;27.786;2023-07-20T13:08:05;99587.84;;;37.92;30.20
63088;BME280;49173;43.164;27.786;2023-07-20T13:10:36;99578.31;;;37.73;29.73
63088;BME280;49173;43.164;27.786;2023-07-20T13:13:07;99572.16;;;37.61;30.23
63088;BME280;49173;43.164;27.786;2023-07-20T13:15:46;99573.28;;;37.55;30.17
63088;BME280;49173;43.164;27.786;2023-07-20T13:18:13;99582.81;;;37.59;30.67
63088;BME280;49173;43.164;27.786;2023-07-20T13:20:46;99578.31;;;37.68;30.08
63088;BME280;49173;43.164;27.786;2023-07-20T13:23:15;99578.88;;;37.70;30.13
63088;BME280;49173;43.164;27.786;2023-07-20T13:25:41;99571.63;;;37.79;30.37
63088;BME280;49173;43.164;27.786;2023-07-20T13:28:14;99572.72;;;37.93;30.41